Time;durP1;ratioP1;P1;durP2;ratioP2;P2;SDS_P1;SDS_P2;PMS_P1;PMS_P2;Temp;Humidity;BMP_temperature;BMP_pressure;BME280_temperature;BME280_humidity;BME280_pressure;Samples;Min_cycle;Max_cycle;Signal;HPM_P1;HPM_P2
2023/05/05 00:01:49;;;;;;;38.70;23.02;;;;;;;11.75;90.81;98119.84;10365729;28;20407;-52
2023/05/05 00:06:49;;;;;;;;;;;;;;;11.70;90.75;98111.19;10366512;28;20058;-53
2023/05/05 00:11:48;;;;;;;27.08;18.73;;;;;;;11.72;90.74;98113.81;10365812;28;19964;-49
2023/05/05 00:16:47;;;;;;;30.60;20.77;;;;;;;11.74;90.74;98112.94;10364987;28;20067;-50
2023/05/05 00:21:46;;;;;;;;;;;;;;;11.75;90.92;98116.41;10365004;28;20150;-50
2023/05/05 00:26:44;;;;;;;30.05;22.10;;;;;;;11.75;90.58;98117.25;10364295;28;20007;-50
2023/05/05 00:31:43;;;;;;;42.13;31.75;;;;;;;11.74;91.02;98117.28;10364109;28;20013;-51
2023/05/05 00:36:42;;;;;;;47.03;34.25;;;;;;;11.77;90.94;98112.94;10364018;28;20409;-50
2023/05/05 00:41:41;;;;;;;44.88;32.53;;;;;;;11.74;91.09;98123.34;10364412;28;20076;-51
2023/05/05 00:46:41;;;;;;;48.53;35.13;;;;;;;11.44;90.80;98082.59;10363998;28;20040;-50
2023/05/05 00:51:41;;;;;;;31.02;22.08;;;;;;;11.64;91.21;98124.19;10363770;28;20140;-49
2023/05/05 00:56:40;;;;;;;32.80;20.98;;;;;;;11.60;91.43;98118.13;10364283;28;20112;-50
2023/05/05 01:01:39;;;;;;;26.08;19.75;;;;;;;11.60;91.68;98119.88;10360985;28;20049;-50
2023/05/05 01:06:47;;;;;;;;;;;;;;;11.62;91.69;98118.16;10366278;28;20076;-49
2023/05/05 01:12:09;;;;;;;29.30;19.65;;;;;;;11.38;92.22;98099.03;10362073;28;20427;-50
2023/05/05 01:17:20;;;;;;;34.60;21.90;;;;;;;11.41;92.79;98113.78;10363506;28;20499;-48
2023/05/05 01:22:25;;;;;;;31.98;22.83;;;;;;;11.25;92.79;98092.09;10362501;28;20942;-53
2023/05/05 01:27:58;;;;;;;35.05;24.88;;;;;;;11.36;93.16;98105.09;10363141;28;20119;-52
2023/05/05 01:33:04;;;;;;;36.22;24.52;;;;;;;11.30;93.48;98095.56;10359494;28;20574;-52
2023/05/05 01:38:13;;;;;;;33.15;22.75;;;;;;;11.32;93.62;98093.84;10361831;28;20116;-53
2023/05/05 01:43:16;;;;;;;34.30;22.23;;;;;;;11.34;93.35;98099.03;10362380;28;20152;-53
2023/05/05 01:48:18;;;;;;;34.03;22.02;;;;;;;11.37;94.08;98097.31;10364778;28;20064;-49
2023/05/05 01:53:19;;;;;;;32.55;22.38;;;;;;;11.11;93.66;98049.66;10365159;28;20052;-50
2023/05/05 01:58:21;;;;;;;35.17;23.35;;;;;;;11.40;93.60;98092.09;10364392;28;20063;-50
2023/05/05 02:03:22;;;;;;;37.50;24.50;;;;;;;11.40;93.45;98093.84;10364305;28;20056;-50
2023/05/05 02:08:24;;;;;;;31.35;22.02;;;;;;;11.15;93.84;98040.97;10363493;28;20071;-48
2023/05/05 02:13:24;;;;;;;31.98;22.73;;;;;;;11.35;93.89;98082.59;10363870;28;20067;-50
2023/05/05 02:18:25;;;;;;;30.52;21.13;;;;;;;11.36;93.52;98079.09;10365054;28;20056;-50
2023/05/05 02:23:25;;;;;;;30.38;20.83;;;;;;;11.35;92.98;98070.47;10362492;28;20064;-49
2023/05/05 02:28:38;;;;;;;29.50;20.05;;;;;;;11.21;93.84;98078.22;10363686;28;20056;-49
2023/05/05 02:33:40;;;;;;;26.02;17.75;;;;;;;10.92;94.23;98078.19;10363182;28;20056;-50
2023/05/05 02:38:43;;;;;;;24.77;16.92;;;;;;;10.60;95.43;98075.44;10364516;28;20075;-50
2023/05/05 02:43:45;;;;;;;29.77;19.33;;;;;;;10.28;95.71;98010.44;10363084;28;20065;-54
2023/05/05 02:48:44;;;;;;;30.23;19.88;;;;;;;10.11;95.68;97997.41;10361067;28;20133;-53
2023/05/05 02:53:43;;;;;;;31.10;20.67;;;;;;;10.74;95.14;98073.75;10358490;28;20144;-53
2023/05/05 02:59:03;;;;;;;31.25;19.73;;;;;;;10.79;95.50;98064.25;10359620;28;20124;-53
2023/05/05 03:04:06;;;;;;;28.75;19.08;;;;;;;10.84;95.03;98075.50;10359897;28;20525;-52
2023/05/05 03:09:14;;;;;;;30.42;19.05;;;;;;;10.92;95.05;98066.94;10359292;28;20072;-51
2023/05/05 03:14:17;;;;;;;27.98;18.48;;;;;;;10.98;94.36;98069.53;10359195;28;20060;-49
2023/05/05 03:19:17;;;;;;;35.72;21.88;;;;;;;11.08;94.36;98062.63;10359489;28;20120;-51
2023/05/05 03:24:19;;;;;;;32.40;21.15;;;;;;;11.10;94.12;98060.91;10361366;28;20132;-52
2023/05/05 03:29:18;;;;;;;33.88;20.85;;;;;;;11.11;94.79;98067.84;10367041;28;20063;-53
2023/05/05 03:34:17;;;;;;;37.42;21.15;;;;;;;11.13;95.01;98066.13;10366410;28;20125;-53
2023/05/05 03:39:17;;;;;;;34.65;21.00;;;;;;;11.17;94.94;98073.88;10367285;28;20047;-53
2023/05/05 03:44:16;;;;;;;30.88;21.00;;;;;;;11.29;94.78;98078.25;10367049;28;20127;-53
2023/05/05 03:49:15;;;;;;;32.67;21.48;;;;;;;11.29;94.25;98073.06;10369273;28;20072;-53
2023/05/05 03:54:15;;;;;;;31.77;20.65;;;;;;;11.28;94.33;98080.84;10370176;28;20041;-53
2023/05/05 03:59:14;;;;;;;31.15;19.42;;;;;;;11.23;94.17;98079.09;10368588;28;20065;-53
2023/05/05 04:04:13;;;;;;;30.70;19.40;;;;;;;11.24;93.57;98087.75;10368781;28;20068;-52
2023/05/05 04:09:13;;;;;;;28.45;18.73;;;;;;;11.31;94.58;98086.03;10368939;28;20052;-53
2023/05/05 04:14:12;;;;;;;32.83;20.60;;;;;;;11.37;93.49;98091.25;10368039;28;20055;-51
2023/05/05 04:19:11;;;;;;;32.10;21.88;;;;;;;11.35;93.91;98092.97;10369005;28;20104;-50
2023/05/05 04:24:10;;;;;;;32.03;21.73;;;;;;;11.41;94.14;98095.59;10368215;28;20455;-51
2023/05/05 04:29:09;;;;;;;27.90;18.77;;;;;;;11.47;94.21;98095.59;10368387;28;20385;-51
2023/05/05 04:34:08;;;;;;;27.98;18.95;;;;;;;11.45;93.25;98077.41;10367473;28;20120;-50
2023/05/05 04:39:07;;;;;;;28.15;19.92;;;;;;;11.55;93.14;98100.78;10367752;28;20028;-50
2023/05/05 04:44:06;;;;;;;29.30;20.45;;;;;;;11.61;92.81;98100.78;10366837;28;20451;-50
2023/05/05 04:49:05;;;;;;;30.23;19.95;;;;;;;11.45;92.33;98074.81;10364769;28;20092;-53
2023/05/05 04:54:04;;;;;;;;;;;;;;;11.68;92.93;98102.53;10367208;28;20118;-53
2023/05/05 04:59:03;;;;;;;35.03;24.23;;;;;;;11.67;92.47;98108.59;10367640;28;19912;-52
2023/05/05 05:04:03;;;;;;;;;;;;;;;11.69;92.63;98109.47;10368009;28;20152;-53
2023/05/05 05:09:02;;;;;;;24.45;16.40;;;;;;;11.55;92.81;98121.56;10368281;28;19947;-53
2023/05/05 05:14:01;;;;;;;26.42;17.27;;;;;;;11.41;92.99;98109.44;10367091;28;20057;-53
2023/05/05 05:19:00;;;;;;;26.80;19.08;;;;;;;11.53;93.48;98124.19;10326860;28;20037;-53
2023/05/05 05:23:59;;;;;;;22.63;15.48;;;;;;;11.48;92.99;98107.72;10366368;28;20094;-53
2023/05/05 05:28:58;;;;;;;;;;;;;;;11.50;92.38;98118.09;10365150;28;20063;-53
2023/05/05 05:33:57;;;;;;;22.40;15.40;;;;;;;11.57;91.91;98125.94;10365878;28;19912;-53
2023/05/05 05:38:56;;;;;;;23.33;15.52;;;;;;;11.52;92.34;98131.97;10366557;28;20017;-53
2023/05/05 05:43:55;;;;;;;;;;;;;;;11.56;92.51;98134.59;10366183;28;20127;-54
2023/05/05 05:48:53;;;;;;;25.25;17.85;;;;;;;11.72;92.65;98138.06;10364904;28;19972;-52
2023/05/05 05:53:52;;;;;;;;;;;;;;;11.91;91.44;98125.94;10363173;28;20037;-53
2023/05/05 05:58:51;;;;;;;26.75;18.08;;;;;;;11.79;90.66;98111.19;10363920;28;19928;-51
2023/05/05 06:03:50;;;;;;;23.75;15.82;;;;;;;11.97;90.94;98131.16;10363620;28;20029;-51
2023/05/05 06:08:49;;;;;;;;;;;;;;;12.18;89.53;98135.47;10358850;28;20648;-53
2023/05/05 06:13:48;;;;;;;16.42;11.02;;;;;;;12.42;87.19;98138.91;10364110;28;20586;-53
2023/05/05 06:18:47;;;;;;;19.13;12.60;;;;;;;12.73;87.04;98135.34;10364104;28;20036;-53
2023/05/05 06:23:46;;;;;;;;;;;;;;;13.06;85.46;98128.25;10364897;28;20509;-53
2023/05/05 06:28:45;;;;;;;20.95;11.80;;;;;;;13.46;82.37;98125.41;10363641;28;19923;-53
2023/05/05 06:33:44;;;;;;;;;;;;;;;13.82;80.13;98133.00;10363800;28;20911;-53
2023/05/05 06:38:42;;;;;;;12.15;8.35;;;;;;;14.09;79.76;98134.53;10363967;28;20370;-53
2023/05/05 06:43:43;;;;;;;;;;;;;;;14.55;76.60;98139.31;10363797;28;20036;-53
2023/05/05 06:48:41;;;;;;;10.63;9.00;;;;;;;14.99;76.38;98130.97;10363571;28;19978;-53
2023/05/05 06:53:40;;;;;;;11.25;8.45;;;;;;;15.36;72.18;98129.59;10363345;28;20133;-53
2023/05/05 06:58:40;;;;;;;9.18;6.68;;;;;;;15.65;69.18;98116.97;10364582;28;20470;-54
2023/05/05 07:03:39;;;;;;;11.95;7.57;;;;;;;15.61;66.68;98122.28;10370278;28;20545;-54
2023/05/05 07:08:38;;;;;;;7.63;5.63;;;;;;;15.59;65.75;98135.38;10371226;28;20075;-53
2023/05/05 07:13:37;;;;;;;9.35;5.82;;;;;;;15.46;65.11;98124.25;10370768;28;20029;-53
2023/05/05 07:18:36;;;;;;;;;;;;;;;15.80;66.88;98125.50;10370880;28;20029;-53
2023/05/05 07:23:36;;;;;;;8.40;5.27;;;;;;;15.90;63.00;98127.06;10368473;28;19917;-54
2023/05/05 07:28:35;;;;;;;7.50;5.20;;;;;;;15.69;62.02;98117.78;10360733;28;20112;-53
2023/05/05 07:33:34;;;;;;;10.35;6.07;;;;;;;16.01;64.09;98134.75;10363133;28;20090;-53
2023/05/05 07:38:33;;;;;;;7.93;5.68;;;;;;;15.63;61.85;98113.50;10366366;28;20064;-53
2023/05/05 07:43:32;;;;;;;8.48;5.10;;;;;;;15.60;62.04;98134.50;10363985;28;20041;-53
2023/05/05 07:48:31;;;;;;;8.45;5.60;;;;;;;15.91;61.89;98126.19;10356907;28;20119;-53
2023/05/05 07:53:30;;;;;;;9.02;6.28;;;;;;;16.17;62.64;98124.88;10364593;28;20063;-53
2023/05/05 07:58:29;;;;;;;10.43;4.88;;;;;;;16.26;60.48;98129.97;10365829;28;20021;-53
2023/05/05 08:03:28;;;;;;;9.73;5.88;;;;;;;16.25;60.80;98136.94;10368149;28;20502;-54
2023/05/05 08:08:27;;;;;;;11.93;6.32;;;;;;;16.49;62.10;98133.03;10368672;28;20137;-53
2023/05/05 08:13:27;;;;;;;10.65;5.82;;;;;;;16.47;60.41;98140.03;10364408;28;20112;-51
2023/05/05 08:18:26;;;;;;;8.80;5.60;;;;;;;16.18;61.27;98142.31;10359700;28;20112;-52
2023/05/05 08:23:25;;;;;;;8.55;5.43;;;;;;;16.03;60.79;98132.97;10360947;28;20071;-54
2023/05/05 08:28:24;;;;;;;7.50;5.60;;;;;;;15.80;62.01;98136.81;10364520;28;20111;-51
2023/05/05 08:33:23;;;;;;;10.52;6.65;;;;;;;15.63;61.01;98076.88;10364412;28;20064;-50
2023/05/05 08:38:22;;;;;;;13.00;7.10;;;;;;;15.91;63.52;98139.28;10366671;28;20056;-51
2023/05/05 08:43:22;;;;;;;13.38;7.10;;;;;;;15.86;64.64;98139.34;10369663;28;20057;-51
2023/05/05 08:48:24;;;;;;;11.13;6.97;;;;;;;15.48;64.47;98131.19;10363231;28;20519;-50
2023/05/05 08:53:54;;;;;;;9.63;5.50;;;;;;;15.70;63.56;98126.50;10364392;28;20068;-52
2023/05/05 08:58:53;;;;;;;10.40;5.82;;;;;;;15.68;61.65;98123.91;10363769;28;20060;-51
2023/05/05 09:03:53;;;;;;;9.80;5.95;;;;;;;15.44;61.47;98112.94;10363459;28;20091;-51
2023/05/05 09:08:53;;;;;;;10.50;6.53;;;;;;;15.78;64.20;98122.84;10363273;28;20060;-51
2023/05/05 09:13:52;;;;;;;9.15;6.72;;;;;;;15.85;61.14;98097.50;10364167;28;20075;-53
2023/05/05 09:19:00;;;;;;;8.35;5.15;;;;;;;15.95;59.49;98127.88;10364348;28;20503;-54
2023/05/05 09:24:07;;;;;;;6.88;4.80;;;;;;;16.17;57.97;98122.28;10358506;28;20149;-53
2023/05/05 09:29:06;;;;;;;7.15;4.78;;;;;;;16.35;56.92;98102.72;10364076;28;20120;-53
2023/05/05 09:34:15;;;;;;;5.18;4.00;;;;;;;16.26;57.04;98064.50;10359319;28;20108;-53
2023/05/05 09:39:18;;;;;;;;;;;;;;;16.59;55.83;98110.13;10359599;28;20148;-55
2023/05/05 09:44:32;;;;;;;6.80;4.93;;;;;;;17.11;54.90;98102.97;10363414;28;20011;-53
2023/05/05 09:49:31;;;;;;;6.93;4.18;;;;;;;17.34;53.64;98108.56;10364044;28;20566;-54
2023/05/05 09:54:32;;;;;;;8.23;4.35;;;;;;;17.31;52.75;98107.81;10360383;28;20021;-54
2023/05/05 09:59:31;;;;;;;6.95;4.45;;;;;;;17.04;54.04;98094.38;10359515;28;20104;-55
2023/05/05 10:04:30;;;;;;;9.65;5.28;;;;;;;16.64;54.74;98047.16;10357514;28;20021;-54
2023/05/05 10:09:32;;;;;;;7.95;5.05;;;;;;;16.59;55.35;98065.59;10359346;28;20119;-54
2023/05/05 10:14:33;;;;;;;8.52;5.32;;;;;;;16.75;55.57;98091.47;10362998;28;20061;-54
2023/05/05 10:19:34;;;;;;;8.57;4.25;;;;;;;16.21;55.63;98084.69;10361802;28;20545;-54
2023/05/05 10:24:38;;;;;;;9.38;5.07;;;;;;;16.27;55.10;98092.41;10361909;28;20740;-54
2023/05/05 10:29:49;;;;;;;4.53;3.63;;;;;;;16.30;55.31;98095.84;10365381;28;20576;-54
2023/05/05 10:34:52;;;;;;;6.18;4.35;;;;;;;16.49;55.92;98091.09;10364446;28;20060;-54
2023/05/05 10:39:53;;;;;;;9.38;4.15;;;;;;;16.43;56.03;98085.97;10362167;28;20254;-54
2023/05/05 10:44:52;;;;;;;4.45;3.35;;;;;;;16.19;54.50;98081.22;10361203;28;20120;-54
2023/05/05 10:50:10;;;;;;;6.28;4.20;;;;;;;16.51;56.10;98086.72;10363379;28;20080;-54
2023/05/05 10:55:37;;;;;;;10.30;6.32;;;;;;;16.60;54.57;98085.63;10364565;28;20064;-53
2023/05/05 11:00:39;;;;;;;7.07;3.80;;;;;;;16.78;54.21;98084.41;10362399;28;20556;-55
2023/05/05 11:06:04;;;;;;;5.88;3.70;;;;;;;17.12;52.38;98068.88;10361955;28;20076;-54
2023/05/05 11:11:04;;;;;;;9.55;3.63;;;;;;;17.40;51.42;98069.97;10361026;28;20079;-54
2023/05/05 11:16:04;;;;;;;5.47;3.70;;;;;;;17.85;51.09;98073.28;10360488;28;20073;-54
2023/05/05 11:21:17;;;;;;;7.38;3.95;;;;;;;18.18;50.03;98066.31;10364413;28;20076;-54
2023/05/05 11:26:37;;;;;;;4.85;4.13;;;;;;;18.51;48.97;98066.28;10368848;28;20150;-54
2023/05/05 11:31:36;;;;;;;12.50;7.55;;;;;;;18.75;48.08;98037.59;10369260;28;20533;-55
2023/05/05 11:36:39;;;;;;;7.50;4.38;;;;;;;18.86;48.52;98059.19;10366001;28;20584;-55
2023/05/05 11:42:19;;;;;;;3.92;3.20;;;;;;;18.73;48.02;98048.16;10365324;28;20122;-55
2023/05/05 11:47:18;;;;;;;4.97;3.78;;;;;;;18.10;48.67;98047.25;10367957;28;20602;-55
2023/05/05 11:52:17;;;;;;;5.55;4.05;;;;;;;16.91;53.20;98009.03;10367297;28;20108;-54
2023/05/05 11:57:20;;;;;;;5.95;4.18;;;;;;;15.87;56.72;97980.56;10369657;28;20129;-53
2023/05/05 12:02:20;;;;;;;7.32;4.57;;;;;;;16.09;57.54;98039.50;10371614;28;20131;-54
2023/05/05 12:07:21;;;;;;;7.63;4.38;;;;;;;16.25;55.02;98023.47;10368399;28;20060;-53
2023/05/05 12:12:20;;;;;;;5.95;3.60;;;;;;;16.28;54.41;98018.19;10367850;28;20105;-53
2023/05/05 12:17:21;;;;;;;6.68;3.83;;;;;;;16.13;54.58;98023.72;10366166;28;20075;-53
2023/05/05 12:22:25;;;;;;;5.95;3.63;;;;;;;15.67;55.23;97898.06;10363603;28;20930;-53
2023/05/05 12:27:25;;;;;;;11.85;7.25;;;;;;;16.08;55.38;97935.66;10370089;28;20801;-53
2023/05/05 12:32:26;;;;;;;6.68;3.90;;;;;;;16.93;53.57;98015.97;10367105;28;20053;-53
2023/05/05 12:37:26;;;;;;;5.85;3.80;;;;;;;17.67;52.56;97998.47;10370411;28;20503;-54
2023/05/05 12:42:25;;;;;;;5.05;3.10;;;;;;;18.09;49.77;97993.00;10365403;28;20124;-54
2023/05/05 12:47:31;;;;;;;5.53;3.40;;;;;;;18.22;47.50;97990.03;10367240;28;20068;-54
2023/05/05 12:52:43;;;;;;;4.45;3.13;;;;;;;18.64;48.31;97969.53;10364530;28;20080;-54
2023/05/05 12:58:03;;;;;;;5.70;3.78;;;;;;;18.63;47.93;97964.34;10364664;28;20495;-54
2023/05/05 13:03:03;;;;;;;;;;;;;;;18.42;47.46;97971.09;10368625;28;20142;-54
2023/05/05 13:08:02;;;;;;;3.80;3.40;;;;;;;18.40;47.05;97957.97;10361363;28;20027;-54
2023/05/05 13:13:03;;;;;;;5.15;3.63;;;;;;;18.38;46.97;97930.91;10365673;28;20060;-54
2023/05/05 13:18:02;;;;;;;5.25;4.03;;;;;;;18.46;47.73;97954.34;10361785;28;20210;-54
2023/05/05 13:23:01;;;;;;;7.07;4.38;;;;;;;18.12;48.59;97923.78;10361998;28;20120;-54
2023/05/05 13:28:00;;;;;;;5.03;3.75;;;;;;;18.09;49.13;97958.88;10361037;28;20126;-54
2023/05/05 13:32:59;;;;;;;6.25;4.05;;;;;;;18.06;48.68;97951.09;10361291;28;20111;-53
2023/05/05 13:37:58;;;;;;;5.72;4.57;;;;;;;18.24;48.43;97933.91;10361834;28;20028;-53
2023/05/05 13:42:57;;;;;;;7.00;3.88;;;;;;;18.20;47.99;97948.06;10361554;28;20033;-54
2023/05/05 13:47:56;;;;;;;6.47;4.57;;;;;;;18.22;48.93;97937.50;10362404;28;20554;-54
2023/05/05 13:52:55;;;;;;;11.32;4.82;;;;;;;18.31;47.26;97960.88;10360549;28;20125;-54
2023/05/05 13:57:53;;;;;;;6.43;4.32;;;;;;;18.48;48.52;97942.88;10358553;28;20044;-54
2023/05/05 14:02:53;;;;;;;7.68;4.07;;;;;;;18.58;49.21;97933.78;10361269;28;20029;-54
2023/05/05 14:07:53;;;;;;;6.68;4.35;;;;;;;18.18;49.87;97906.06;10359967;28;20080;-54
2023/05/05 14:12:52;;;;;;;6.32;4.57;;;;;;;18.16;51.03;97936.78;10361272;28;20072;-54
2023/05/05 14:17:51;;;;;;;9.95;4.80;;;;;;;18.33;51.19;97936.28;10360258;28;20132;-55
2023/05/05 14:22:50;;;;;;;7.05;5.00;;;;;;;18.58;49.94;97933.78;10359755;28;20044;-54
2023/05/05 14:27:49;;;;;;;6.47;4.57;;;;;;;18.45;50.26;97928.94;10358024;28;20114;-54
2023/05/05 14:32:48;;;;;;;5.88;3.95;;;;;;;18.29;50.63;97921.53;10359453;28;20060;-54
2023/05/05 14:37:47;;;;;;;6.25;4.07;;;;;;;18.34;49.69;97932.75;10360510;28;20079;-54
2023/05/05 14:42:47;;;;;;;7.40;4.05;;;;;;;18.09;50.81;97872.19;10350166;28;20865;-55
2023/05/05 14:47:46;;;;;;;6.15;4.25;;;;;;;18.61;50.93;97920.53;10355285;28;20136;-54
2023/05/05 14:52:45;;;;;;;6.18;3.90;;;;;;;18.78;50.18;97908.69;10357447;28;20025;-55
2023/05/05 14:57:44;;;;;;;10.93;5.57;;;;;;;19.14;49.76;97917.16;10361185;28;20144;-54
2023/05/05 15:02:43;;;;;;;8.23;5.18;;;;;;;19.32;49.38;97904.28;10358260;28;20037;-54
2023/05/05 15:07:42;;;;;;;8.90;5.07;;;;;;;19.50;49.24;97903.66;10358617;28;20167;-54
2023/05/05 15:12:41;;;;;;;6.97;4.90;;;;;;;19.52;49.15;97903.63;10359007;28;20040;-55
2023/05/05 15:17:40;;;;;;;5.95;4.78;;;;;;;19.58;49.47;97904.31;10357900;28;20091;-55
2023/05/05 15:22:39;;;;;;;7.88;5.80;;;;;;;19.30;47.79;97911.38;10365962;28;20037;-55
2023/05/05 15:27:38;;;;;;;6.32;4.97;;;;;;;18.99;48.31;97884.34;10367126;28;20040;-55
2023/05/05 15:32:37;;;;;;;10.57;6.40;;;;;;;19.07;48.26;97904.28;10368134;28;20478;-54
2023/05/05 15:37:36;;;;;;;8.18;5.55;;;;;;;19.02;47.80;97907.91;10364574;28;20525;-54
2023/05/05 15:42:35;;;;;;;10.02;5.90;;;;;;;18.86;48.27;97898.78;10365003;28;20076;-54
2023/05/05 15:47:34;;;;;;;8.48;5.30;;;;;;;18.51;49.25;97894.63;10368369;28;20073;-54
2023/05/05 15:52:34;;;;;;;13.48;7.20;;;;;;;18.15;50.17;97898.31;10370050;28;20028;-54
2023/05/05 15:57:33;;;;;;;10.10;6.80;;;;;;;17.88;50.58;97880.72;10368626;28;20064;-54
2023/05/05 16:02:32;;;;;;;10.18;6.93;;;;;;;17.52;51.26;97878.16;10366270;28;20064;-54
2023/05/05 16:07:31;;;;;;;8.77;6.00;;;;;;;17.21;51.95;97889.44;10368818;28;20459;-54
2023/05/05 16:12:30;;;;;;;7.30;5.28;;;;;;;16.97;53.03;97884.81;10368586;28;20398;-54
2023/05/05 16:17:29;;;;;;;8.95;5.70;;;;;;;16.82;54.05;97889.53;10368249;28;20114;-54
2023/05/05 16:22:28;;;;;;;7.78;4.80;;;;;;;16.71;54.12;97886.28;10368799;28;20439;-54
2023/05/05 16:27:27;;;;;;;9.68;6.50;;;;;;;16.67;54.38;97895.97;10367534;28;20063;-53
2023/05/05 16:32:25;;;;;;;10.30;5.78;;;;;;;16.28;55.13;97871.56;10367226;28;20041;-53
2023/05/05 16:37:24;;;;;;;10.63;6.82;;;;;;;16.26;55.48;97884.66;10368281;28;20116;-53
2023/05/05 16:42:23;;;;;;;14.77;10.05;;;;;;;15.94;56.88;97885.34;10358505;28;20112;-53
2023/05/05 16:47:22;;;;;;;13.65;9.38;;;;;;;15.59;57.72;97881.63;10362952;28;20551;-53
2023/05/05 16:52:21;;;;;;;12.30;8.55;;;;;;;15.48;58.74;97890.56;10359035;28;20490;-53
2023/05/05 16:57:21;;;;;;;16.17;9.07;;;;;;;15.36;59.25;97899.50;10357453;28;20656;-53
2023/05/05 17:02:20;;;;;;;17.15;12.25;;;;;;;15.04;60.03;97865.19;10356021;28;20124;-53
2023/05/05 17:07:19;;;;;;;19.17;12.30;;;;;;;14.96;60.96;97879.28;10362450;28;20132;-53
2023/05/05 17:12:18;;;;;;;;;;;;;;;14.85;62.36;97889.91;10361026;28;20079;-54
2023/05/05 17:17:17;;;;;;;23.37;15.97;;;;;;;14.68;63.42;97897.09;10364969;28;19917;-53
2023/05/05 17:22:15;;;;;;;;;;;;;;;14.53;63.43;97900.81;10363029;28;20021;-53
2023/05/05 17:27:14;;;;;;;34.00;17.77;;;;;;;14.31;64.26;97895.91;10362547;28;20034;-52
2023/05/05 17:32:13;;;;;;;;;;;;;;;14.21;66.31;97907.34;10362459;28;20102;-53
2023/05/05 17:37:12;;;;;;;24.47;14.20;;;;;;;13.80;67.84;97872.19;10360636;28;19912;-52
2023/05/05 17:42:11;;;;;;;23.77;16.13;;;;;;;13.92;68.55;97913.78;10364840;28;20060;-53
2023/05/05 17:47:10;;;;;;;;;;;;;;;13.61;71.48;97909.78;10363155;28;20041;-53
2023/05/05 17:52:09;;;;;;;26.67;17.20;;;;;;;13.27;71.75;97871.88;10361745;28;19948;-53
2023/05/05 17:57:08;;;;;;;;;;;;;;;13.36;72.33;97910.88;10359885;28;20362;-53
2023/05/05 18:02:07;;;;;;;44.33;28.05;;;;;;;13.24;73.88;97920.56;10359649;28;20003;-54
2023/05/05 18:07:07;;;;;;;34.28;24.17;;;;;;;12.89;73.84;97886.09;10356605;28;20132;-53
2023/05/05 18:12:06;;;;;;;31.55;21.15;;;;;;;12.90;75.14;97924.28;10359019;28;20103;-54
2023/05/05 18:17:05;;;;;;;27.38;17.80;;;;;;;12.57;75.80;97888.94;10355069;28;20566;-52
2023/05/05 18:22:04;;;;;;;;;;;;;;;12.62;76.33;97933.19;10363045;28;20051;-53
2023/05/05 18:27:06;;;;;;;25.58;17.02;;;;;;;12.26;76.33;97914.28;10360248;28;19924;-53
2023/05/05 18:32:05;;;;;;;22.15;15.18;;;;;;;12.12;76.66;97918.69;10357928;28;20434;-53
2023/05/05 18:37:04;;;;;;;25.80;15.52;;;;;;;12.12;77.26;97939.50;10358942;28;20112;-53
2023/05/05 18:42:03;;;;;;;;;;;;;;;12.01;77.99;97942.97;10359577;28;20180;-52
2023/05/05 18:47:02;;;;;;;21.23;14.02;;;;;;;11.90;78.05;97957.78;10360412;28;19916;-53
2023/05/05 18:52:01;;;;;;;22.85;15.23;;;;;;;11.78;78.04;97963.88;10359652;28;20045;-53
2023/05/05 18:57:00;;;;;;;23.77;15.75;;;;;;;11.69;79.06;97953.50;10366597;28;20029;-53
2023/05/05 19:01:58;;;;;;;;;;;;;;;11.55;78.85;97955.22;10370831;28;20688;-53
2023/05/05 19:06:58;;;;;;;27.50;16.70;;;;;;;11.47;79.97;97963.06;10369601;28;19970;-53
2023/05/05 19:11:58;;;;;;;20.63;15.13;;;;;;;11.32;79.87;97968.28;10368769;28;20521;-53
2023/05/05 19:17:00;;;;;;;20.98;14.50;;;;;;;10.45;80.26;97842.75;10384701;28;20068;-55
2023/05/05 19:21:59;;;;;;;20.90;14.90;;;;;;;11.04;80.64;97963.94;10366875;28;20075;-52
2023/05/05 19:26:58;;;;;;;21.60;14.55;;;;;;;10.95;80.43;97969.13;10370028;28;20027;-52
2023/05/05 19:31:57;;;;;;;22.00;14.80;;;;;;;10.87;81.40;97960.47;10369131;28;20139;-52
2023/05/05 19:36:56;;;;;;;20.38;13.52;;;;;;;10.77;81.35;97969.91;10365893;28;20041;-52
2023/05/05 19:41:55;;;;;;;22.50;14.23;;;;;;;10.72;81.64;97965.59;10369211;28;20135;-52
2023/05/05 19:46:54;;;;;;;32.20;15.70;;;;;;;10.49;82.04;97943.06;10367083;28;20123;-53
2023/05/05 19:51:53;;;;;;;28.55;16.30;;;;;;;10.56;83.93;97967.28;10365338;28;20072;-52
2023/05/05 19:56:52;;;;;;;;;;;;;;;10.39;85.74;97969.84;10366331;28;20064;-52
2023/05/05 20:01:50;;;;;;;34.22;22.15;;;;;;;10.27;86.10;97967.22;10363566;28;20010;-52
2023/05/05 20:06:49;;;;;;;38.65;25.55;;;;;;;10.04;86.60;97957.59;10362798;28;20039;-52
2023/05/05 20:11:48;;;;;;;41.72;26.52;;;;;;;10.02;86.34;97964.50;10364364;28;20072;-52
2023/05/05 20:16:47;;;;;;;39.85;27.40;;;;;;;9.29;85.91;97838.91;10363798;28;20135;-52
2023/05/05 20:21:46;;;;;;;42.53;30.00;;;;;;;9.86;86.32;97929.00;10361998;28;20151;-51
2023/05/05 20:26:45;;;;;;;34.13;23.83;;;;;;;9.99;85.78;97967.09;10364092;28;20025;-53
2023/05/05 20:31:45;;;;;;;38.95;26.35;;;;;;;9.97;86.08;97961.03;10363133;28;20060;-52
2023/05/05 20:36:44;;;;;;;32.75;22.48;;;;;;;9.84;86.44;97956.63;10363120;28;20566;-52
2023/05/05 20:41:45;;;;;;;29.83;19.02;;;;;;;9.71;86.13;97947.94;10362632;28;20935;-52
2023/05/05 20:46:44;;;;;;;32.08;17.90;;;;;;;9.32;86.55;97906.28;10363138;28;20064;-52
2023/05/05 20:51:42;;;;;;;30.73;19.30;;;;;;;9.64;86.16;97961.72;10364685;28;20053;-52
2023/05/05 20:56:41;;;;;;;28.55;18.15;;;;;;;9.56;86.20;97959.09;10363137;28;20029;-52
2023/05/05 21:01:41;;;;;;;25.58;17.17;;;;;;;9.50;86.15;97966.81;10364140;28;20455;-52
2023/05/05 21:06:40;;;;;;;29.80;17.45;;;;;;;9.43;87.31;97957.28;10362894;28;20179;-50
2023/05/05 21:11:39;;;;;;;27.38;17.25;;;;;;;9.38;86.71;97948.63;10362061;28;20040;-52
2023/05/05 21:16:38;;;;;;;30.00;18.90;;;;;;;9.34;86.64;97956.34;10361025;28;20394;-51
2023/05/05 21:21:37;;;;;;;30.35;16.75;;;;;;;9.22;87.08;97951.03;10361414;28;21513;-52
2023/05/05 21:26:36;;;;;;;24.52;16.00;;;;;;;9.13;87.88;97949.25;10362755;28;20125;-52
2023/05/05 21:31:35;;;;;;;24.48;15.70;;;;;;;9.16;87.81;97951.03;10362211;28;20119;-52
2023/05/05 21:36:35;;;;;;;24.98;15.48;;;;;;;9.10;87.96;97949.22;10361926;28;20051;-52
2023/05/05 21:41:34;;;;;;;24.05;15.10;;;;;;;9.08;87.80;97947.50;10361647;28;20549;-52
2023/05/05 21:46:32;;;;;;;20.55;14.02;;;;;;;9.05;88.04;97939.72;10360816;28;20044;-52
2023/05/05 21:51:33;;;;;;;28.90;17.88;;;;;;;9.01;88.42;97950.88;10357513;28;20041;-51
2023/05/05 21:56:32;;;;;;;29.88;17.45;;;;;;;9.00;88.03;97943.97;10361046;28;20060;-52
2023/05/05 22:01:32;;;;;;;34.92;17.90;;;;;;;8.97;87.44;97938.75;10360561;28;20151;-52
2023/05/05 22:06:31;;;;;;;27.33;17.30;;;;;;;8.86;87.71;97939.53;10359712;28;20139;-52
2023/05/05 22:11:30;;;;;;;27.15;16.17;;;;;;;8.80;87.89;97921.38;10359237;28;20065;-52
2023/05/05 22:16:29;;;;;;;30.75;18.73;;;;;;;8.80;88.27;97915.34;10354312;28;20087;-51
2023/05/05 22:21:28;;;;;;;33.80;19.52;;;;;;;8.78;88.42;97925.66;10356999;28;20148;-50
2023/05/05 22:26:27;;;;;;;43.67;27.45;;;;;;;8.59;90.18;97934.97;10358657;28;20017;-52
2023/05/05 22:31:26;;;;;;;36.22;24.77;;;;;;;8.07;90.83;97882.72;10359811;28;21174;-52
2023/05/05 22:36:26;;;;;;;43.97;27.38;;;;;;;8.35;90.69;97926.97;10359445;28;20881;-51
2023/05/05 22:41:25;;;;;;;45.42;26.50;;;;;;;8.30;90.30;97924.34;10359450;28;20550;-51
2023/05/05 22:46:24;;;;;;;;;;;;;;;8.30;89.63;97921.75;10360577;28;20076;-52
2023/05/05 22:51:23;;;;;;;46.78;24.67;;;;;;;8.29;89.75;97918.31;10359565;28;20261;-51
2023/05/05 22:56:23;;;;;;;36.92;21.95;;;;;;;8.24;89.92;97913.94;10359144;28;20045;-51
2023/05/05 23:01:22;;;;;;;43.55;23.88;;;;;;;8.09;89.93;97894.81;10359434;28;20133;-52
2023/05/05 23:06:21;;;;;;;37.75;21.15;;;;;;;8.21;89.88;97919.06;10359410;28;20123;-50
2023/05/05 23:11:20;;;;;;;41.63;25.02;;;;;;;8.22;90.21;97921.66;10360385;28;20140;-52
2023/05/05 23:16:19;;;;;;;42.00;23.63;;;;;;;8.17;90.54;97922.47;10359013;28;20263;-51